sensor_id;sensor_type;location;lat;lon;timestamp;P1;durP1;ratioP1;P2;durP2;ratioP2
70450;SDS011;58869;51.982;4.450;2023-09-19T00:00:55;3.71;;;2.83;;
70450;SDS011;58869;51.982;4.450;2023-09-19T00:03:22;3.70;;;2.87;;
70450;SDS011;58869;51.982;4.450;2023-09-19T00:05:53;3.51;;;2.76;;
70450;SDS011;58869;51.982;4.450;2023-09-19T00:08:35;3.43;;;2.71;;
70450;SDS011;58869;51.982;4.450;2023-09-19T00:11:03;3.72;;;2.89;;
70450;SDS011;58869;51.982;4.450;2023-09-19T00:13:29;3.95;;;3.02;;
70450;SDS011;58869;51.982;4.450;2023-09-19T00:15:56;3.35;;;2.59;;
70450;SDS011;58869;51.982;4.450;2023-09-19T00:18:27;3.74;;;2.92;;
70450;SDS011;58869;51.982;4.450;2023-09-19T00:20:57;3.47;;;2.75;;
70450;SDS011;58869;51.982;4.450;2023-09-19T00:23:25;3.60;;;2.77;;
70450;SDS011;58869;51.982;4.450;2023-09-19T00:25:52;3.50;;;2.70;;
70450;SDS011;58869;51.982;4.450;2023-09-19T00:28:31;3.69;;;2.86;;
70450;SDS011;58869;51.982;4.450;2023-09-19T00:31:03;3.54;;;2.73;;
70450;SDS011;58869;51.982;4.450;2023-09-19T00:33:30;4.21;;;3.21;;
70450;SDS011;58869;51.982;4.450;2023-09-19T00:35:56;4.15;;;3.09;;
70450;SDS011;58869;51.982;4.450;2023-09-19T00:38:31;4.11;;;3.06;;
70450;SDS011;58869;51.982;4.450;2023-09-19T00:40:57;4.14;;;3.12;;
70450;SDS011;58869;51.982;4.450;2023-09-19T00:43:25;3.92;;;2.97;;
70450;SDS011;58869;51.982;4.450;2023-09-19T00:45:52;4.05;;;3.12;;
70450;SDS011;58869;51.982;4.450;2023-09-19T00:48:20;3.94;;;3.06;;
70450;SDS011;58869;51.982;4.450;2023-09-19T00:50:47;4.14;;;3.14;;
70450;SDS011;58869;51.982;4.450;2023-09-19T00:53:18;4.25;;;3.21;;
70450;SDS011;58869;51.982;4.450;2023-09-19T00:58:22;4.94;;;3.73;;
70450;SDS011;58869;51.982;4.450;2023-09-19T01:00:48;4.76;;;3.60;;
70450;SDS011;58869;51.982;4.450;2023-09-19T01:03:32;5.11;;;3.83;;
70450;SDS011;58869;51.982;4.450;2023-09-19T01:06:01;5.26;;;3.86;;
70450;SDS011;58869;51.982;4.450;2023-09-19T01:08:30;5.49;;;4.06;;
70450;SDS011;58869;51.982;4.450;2023-09-19T01:10:59;4.79;;;3.63;;
70450;SDS011;58869;51.982;4.450;2023-09-19T01:14:52;4.67;;;3.60;;
70450;SDS011;58869;51.982;4.450;2023-09-19T01:25:30;5.46;;;3.88;;
70450;SDS011;58869;51.982;4.450;2023-09-19T01:28:20;6.02;;;4.20;;
70450;SDS011;58869;51.982;4.450;2023-09-19T01:30:51;6.55;;;4.49;;
70450;SDS011;58869;51.982;4.450;2023-09-19T01:33:19;6.04;;;4.19;;
70450;SDS011;58869;51.982;4.450;2023-09-19T01:35:46;5.71;;;4.07;;
70450;SDS011;58869;51.982;4.450;2023-09-19T01:38:12;5.13;;;3.71;;
70450;SDS011;58869;51.982;4.450;2023-09-19T01:40:43;5.86;;;4.15;;
70450;SDS011;58869;51.982;4.450;2023-09-19T01:43:20;6.24;;;4.34;;
70450;SDS011;58869;51.982;4.450;2023-09-19T01:46:01;6.17;;;4.33;;
70450;SDS011;58869;51.982;4.450;2023-09-19T01:48:51;5.47;;;3.83;;
70450;SDS011;58869;51.982;4.450;2023-09-19T01:51:22;5.55;;;3.90;;
70450;SDS011;58869;51.982;4.450;2023-09-19T01:56:36;6.50;;;4.34;;
70450;SDS011;58869;51.982;4.450;2023-09-19T01:59:29;5.88;;;4.00;;
70450;SDS011;58869;51.982;4.450;2023-09-19T02:02:07;6.07;;;4.08;;
70450;SDS011;58869;51.982;4.450;2023-09-19T02:04:35;6.22;;;4.17;;
70450;SDS011;58869;51.982;4.450;2023-09-19T02:07:07;5.71;;;3.93;;
70450;SDS011;58869;51.982;4.450;2023-09-19T02:09:39;5.27;;;3.65;;
70450;SDS011;58869;51.982;4.450;2023-09-19T02:15:35;5.66;;;3.98;;
70450;SDS011;58869;51.982;4.450;2023-09-19T02:18:15;4.90;;;3.43;;
70450;SDS011;58869;51.982;4.450;2023-09-19T02:20:55;5.24;;;3.70;;
70450;SDS011;58869;51.982;4.450;2023-09-19T02:23:23;4.88;;;3.45;;
70450;SDS011;58869;51.982;4.450;2023-09-19T02:25:53;5.16;;;3.66;;
70450;SDS011;58869;51.982;4.450;2023-09-19T02:28:28;5.06;;;3.53;;
70450;SDS011;58869;51.982;4.450;2023-09-19T02:30:57;5.46;;;3.74;;
70450;SDS011;58869;51.982;4.450;2023-09-19T02:33:23;5.97;;;3.98;;
70450;SDS011;58869;51.982;4.450;2023-09-19T02:35:49;6.04;;;4.06;;
70450;SDS011;58869;51.982;4.450;2023-09-19T02:38:41;5.50;;;3.73;;
70450;SDS011;58869;51.982;4.450;2023-09-19T02:41:07;5.24;;;3.61;;
70450;SDS011;58869;51.982;4.450;2023-09-19T02:43:33;5.91;;;4.03;;
70450;SDS011;58869;51.982;4.450;2023-09-19T02:46:09;5.49;;;3.77;;
70450;SDS011;58869;51.982;4.450;2023-09-19T02:48:46;4.68;;;3.27;;
70450;SDS011;58869;51.982;4.450;2023-09-19T02:51:23;4.71;;;3.32;;
70450;SDS011;58869;51.982;4.450;2023-09-19T02:53:54;4.82;;;3.37;;
70450;SDS011;58869;51.982;4.450;2023-09-19T02:56:20;4.37;;;3.09;;
70450;SDS011;58869;51.982;4.450;2023-09-19T02:58:45;4.55;;;3.20;;
70450;SDS011;58869;51.982;4.450;2023-09-19T03:01:19;4.71;;;3.34;;
70450;SDS011;58869;51.982;4.450;2023-09-19T03:03:46;4.91;;;3.41;;
70450;SDS011;58869;51.982;4.450;2023-09-19T03:06:11;4.91;;;3.40;;
70450;SDS011;58869;51.982;4.450;2023-09-19T03:08:38;4.68;;;3.29;;
70450;SDS011;58869;51.982;4.450;2023-09-19T03:11:13;4.45;;;3.17;;
70450;SDS011;58869;51.982;4.450;2023-09-19T03:13:53;4.50;;;3.20;;
70450;SDS011;58869;51.982;4.450;2023-09-19T03:16:22;5.21;;;3.66;;
70450;SDS011;58869;51.982;4.450;2023-09-19T03:18:48;4.83;;;3.44;;
70450;SDS011;58869;51.982;4.450;2023-09-19T03:21:14;4.09;;;2.89;;
70450;SDS011;58869;51.982;4.450;2023-09-19T03:23:42;5.09;;;3.63;;
70450;SDS011;58869;51.982;4.450;2023-09-19T03:26:11;3.93;;;2.82;;
70450;SDS011;58869;51.982;4.450;2023-09-19T03:28:37;3.76;;;2.73;;
70450;SDS011;58869;51.982;4.450;2023-09-19T03:31:09;4.72;;;3.37;;
70450;SDS011;58869;51.982;4.450;2023-09-19T03:33:34;4.71;;;3.30;;
70450;SDS011;58869;51.982;4.450;2023-09-19T03:36:01;4.22;;;2.96;;
70450;SDS011;58869;51.982;4.450;2023-09-19T03:41:40;4.52;;;3.23;;
70450;SDS011;58869;51.982;4.450;2023-09-19T03:44:06;4.14;;;2.97;;
70450;SDS011;58869;51.982;4.450;2023-09-19T03:46:32;4.00;;;2.94;;
70450;SDS011;58869;51.982;4.450;2023-09-19T03:49:04;4.18;;;3.12;;
70450;SDS011;58869;51.982;4.450;2023-09-19T03:51:33;5.04;;;3.68;;
70450;SDS011;58869;51.982;4.450;2023-09-19T03:53:59;5.39;;;3.93;;
70450;SDS011;58869;51.982;4.450;2023-09-19T03:56:37;5.16;;;3.72;;
70450;SDS011;58869;51.982;4.450;2023-09-19T03:59:03;5.23;;;3.75;;
70450;SDS011;58869;51.982;4.450;2023-09-19T04:01:29;4.80;;;3.49;;
70450;SDS011;58869;51.982;4.450;2023-09-19T04:03:58;5.30;;;3.81;;
70450;SDS011;58869;51.982;4.450;2023-09-19T04:06:23;6.10;;;4.33;;
70450;SDS011;58869;51.982;4.450;2023-09-19T04:08:54;5.90;;;4.24;;
70450;SDS011;58869;51.982;4.450;2023-09-19T04:11:25;5.92;;;4.10;;
70450;SDS011;58869;51.982;4.450;2023-09-19T04:14:03;6.03;;;4.22;;
70450;SDS011;58869;51.982;4.450;2023-09-19T04:16:29;6.13;;;4.27;;
70450;SDS011;58869;51.982;4.450;2023-09-19T04:18:56;5.87;;;4.17;;
70450;SDS011;58869;51.982;4.450;2023-09-19T04:21:22;5.90;;;4.18;;
70450;SDS011;58869;51.982;4.450;2023-09-19T04:23:56;6.00;;;4.28;;
70450;SDS011;58869;51.982;4.450;2023-09-19T04:26:24;5.38;;;3.91;;
70450;SDS011;58869;51.982;4.450;2023-09-19T04:28:57;5.41;;;3.94;;
70450;SDS011;58869;51.982;4.450;2023-09-19T04:31:23;5.66;;;4.03;;
70450;SDS011;58869;51.982;4.450;2023-09-19T04:34:06;5.23;;;3.70;;
70450;SDS011;58869;51.982;4.450;2023-09-19T04:36:33;5.69;;;4.01;;
70450;SDS011;58869;51.982;4.450;2023-09-19T04:39:00;5.96;;;4.21;;
70450;SDS011;58869;51.982;4.450;2023-09-19T04:41:27;5.69;;;3.98;;
70450;SDS011;58869;51.982;4.450;2023-09-19T04:43:52;5.78;;;4.06;;
70450;SDS011;58869;51.982;4.450;2023-09-19T04:46:18;5.58;;;3.98;;
70450;SDS011;58869;51.982;4.450;2023-09-19T04:48:43;5.56;;;3.94;;
70450;SDS011;58869;51.982;4.450;2023-09-19T04:51:18;5.83;;;4.15;;
70450;SDS011;58869;51.982;4.450;2023-09-19T04:53:45;5.71;;;4.03;;
70450;SDS011;58869;51.982;4.450;2023-09-19T04:56:12;5.42;;;3.87;;
70450;SDS011;58869;51.982;4.450;2023-09-19T04:58:38;5.69;;;4.05;;
70450;SDS011;58869;51.982;4.450;2023-09-19T05:01:03;5.39;;;3.86;;
70450;SDS011;58869;51.982;4.450;2023-09-19T05:03:29;4.87;;;3.52;;
70450;SDS011;58869;51.982;4.450;2023-09-19T05:05:57;5.30;;;3.90;;
70450;SDS011;58869;51.982;4.450;2023-09-19T05:08:29;5.83;;;4.24;;
70450;SDS011;58869;51.982;4.450;2023-09-19T05:11:04;4.35;;;3.20;;
70450;SDS011;58869;51.982;4.450;2023-09-19T05:13:29;6.10;;;4.31;;
70450;SDS011;58869;51.982;4.450;2023-09-19T05:16:04;5.24;;;3.71;;
70450;SDS011;58869;51.982;4.450;2023-09-19T05:18:29;5.53;;;3.97;;
70450;SDS011;58869;51.982;4.450;2023-09-19T05:21:03;5.26;;;3.83;;
70450;SDS011;58869;51.982;4.450;2023-09-19T05:23:31;6.21;;;4.43;;
70450;SDS011;58869;51.982;4.450;2023-09-19T05:25:57;6.17;;;4.34;;
70450;SDS011;58869;51.982;4.450;2023-09-19T05:28:25;5.75;;;4.06;;
70450;SDS011;58869;51.982;4.450;2023-09-19T05:31:00;5.54;;;4.00;;
70450;SDS011;58869;51.982;4.450;2023-09-19T05:33:30;5.71;;;4.21;;
70450;SDS011;58869;51.982;4.450;2023-09-19T05:35:57;6.18;;;4.53;;
70450;SDS011;58869;51.982;4.450;2023-09-19T05:38:31;6.41;;;4.60;;
70450;SDS011;58869;51.982;4.450;2023-09-19T05:41:08;6.37;;;4.58;;
70450;SDS011;58869;51.982;4.450;2023-09-19T05:43:39;5.43;;;3.98;;
70450;SDS011;58869;51.982;4.450;2023-09-19T05:46:07;6.09;;;4.40;;
70450;SDS011;58869;51.982;4.450;2023-09-19T05:48:33;6.52;;;4.60;;
70450;SDS011;58869;51.982;4.450;2023-09-19T05:51:02;6.54;;;4.58;;
70450;SDS011;58869;51.982;4.450;2023-09-19T05:53:30;7.01;;;4.84;;
70450;SDS011;58869;51.982;4.450;2023-09-19T05:55:56;7.33;;;5.01;;
70450;SDS011;58869;51.982;4.450;2023-09-19T05:58:26;6.97;;;4.81;;
70450;SDS011;58869;51.982;4.450;2023-09-19T06:01:01;6.95;;;4.88;;
70450;SDS011;58869;51.982;4.450;2023-09-19T06:03:26;7.15;;;5.04;;
70450;SDS011;58869;51.982;4.450;2023-09-19T06:05:58;6.66;;;4.72;;
70450;SDS011;58869;51.982;4.450;2023-09-19T06:08:24;6.65;;;4.76;;
70450;SDS011;58869;51.982;4.450;2023-09-19T06:17:10;6.78;;;4.94;;
70450;SDS011;58869;51.982;4.450;2023-09-19T06:19:37;5.93;;;4.43;;
70450;SDS011;58869;51.982;4.450;2023-09-19T06:22:18;6.66;;;4.83;;
70450;SDS011;58869;51.982;4.450;2023-09-19T06:31:02;7.13;;;5.06;;
70450;SDS011;58869;51.982;4.450;2023-09-19T06:33:28;7.73;;;5.34;;
70450;SDS011;58869;51.982;4.450;2023-09-19T06:35:56;7.23;;;5.01;;
70450;SDS011;58869;51.982;4.450;2023-09-19T06:38:28;7.11;;;4.96;;
70450;SDS011;58869;51.982;4.450;2023-09-19T06:40:53;7.09;;;4.96;;
70450;SDS011;58869;51.982;4.450;2023-09-19T06:43:22;7.60;;;5.31;;
70450;SDS011;58869;51.982;4.450;2023-09-19T06:45:53;7.77;;;5.37;;
70450;SDS011;58869;51.982;4.450;2023-09-19T06:48:20;7.63;;;5.25;;
70450;SDS011;58869;51.982;4.450;2023-09-19T06:50:49;7.89;;;5.48;;
70450;SDS011;58869;51.982;4.450;2023-09-19T06:53:17;7.17;;;5.02;;
70450;SDS011;58869;51.982;4.450;2023-09-19T06:55:43;7.76;;;5.42;;
70450;SDS011;58869;51.982;4.450;2023-09-19T07:00:51;7.58;;;5.43;;
70450;SDS011;58869;51.982;4.450;2023-09-19T07:03:17;7.05;;;5.01;;
70450;SDS011;58869;51.982;4.450;2023-09-19T07:05:43;6.64;;;4.76;;
70450;SDS011;58869;51.982;4.450;2023-09-19T07:08:09;6.53;;;4.65;;
70450;SDS011;58869;51.982;4.450;2023-09-19T07:10:37;6.68;;;4.76;;
70450;SDS011;58869;51.982;4.450;2023-09-19T07:13:06;7.28;;;5.17;;
70450;SDS011;58869;51.982;4.450;2023-09-19T07:15:37;6.87;;;4.91;;
70450;SDS011;58869;51.982;4.450;2023-09-19T07:18:11;6.75;;;4.84;;
70450;SDS011;58869;51.982;4.450;2023-09-19T07:20:39;7.45;;;5.38;;
70450;SDS011;58869;51.982;4.450;2023-09-19T07:23:11;7.04;;;5.00;;
70450;SDS011;58869;51.982;4.450;2023-09-19T07:25:45;6.63;;;4.78;;
70450;SDS011;58869;51.982;4.450;2023-09-19T07:28:17;7.29;;;5.29;;
70450;SDS011;58869;51.982;4.450;2023-09-19T07:30:43;7.57;;;5.39;;
70450;SDS011;58869;51.982;4.450;2023-09-19T07:33:17;8.27;;;5.81;;
70450;SDS011;58869;51.982;4.450;2023-09-19T07:35:46;7.97;;;5.51;;
70450;SDS011;58869;51.982;4.450;2023-09-19T07:38:13;7.04;;;4.96;;
70450;SDS011;58869;51.982;4.450;2023-09-19T07:40:41;7.74;;;5.42;;
70450;SDS011;58869;51.982;4.450;2023-09-19T07:43:07;8.14;;;5.72;;
70450;SDS011;58869;51.982;4.450;2023-09-19T07:45:33;8.42;;;5.82;;
70450;SDS011;58869;51.982;4.450;2023-09-19T07:47:59;7.86;;;5.48;;
70450;SDS011;58869;51.982;4.450;2023-09-19T07:50:38;8.09;;;5.59;;
70450;SDS011;58869;51.982;4.450;2023-09-19T07:53:10;8.81;;;5.98;;
70450;SDS011;58869;51.982;4.450;2023-09-19T07:55:38;7.85;;;5.40;;
70450;SDS011;58869;51.982;4.450;2023-09-19T07:58:06;8.27;;;5.78;;
70450;SDS011;58869;51.982;4.450;2023-09-19T08:00:32;7.87;;;5.44;;
70450;SDS011;58869;51.982;4.450;2023-09-19T08:03:00;7.63;;;5.28;;
70450;SDS011;58869;51.982;4.450;2023-09-19T08:05:29;8.02;;;5.58;;
70450;SDS011;58869;51.982;4.450;2023-09-19T08:08:00;7.92;;;5.55;;
70450;SDS011;58869;51.982;4.450;2023-09-19T08:10:35;7.74;;;5.38;;
70450;SDS011;58869;51.982;4.450;2023-09-19T08:23:11;7.01;;;5.02;;
70450;SDS011;58869;51.982;4.450;2023-09-19T08:25:37;6.84;;;4.91;;
70450;SDS011;58869;51.982;4.450;2023-09-19T08:28:04;7.44;;;5.20;;
70450;SDS011;58869;51.982;4.450;2023-09-19T08:30:33;6.92;;;4.91;;
70450;SDS011;58869;51.982;4.450;2023-09-19T08:33:00;7.37;;;5.24;;
70450;SDS011;58869;51.982;4.450;2023-09-19T08:35:26;6.71;;;4.86;;
70450;SDS011;58869;51.982;4.450;2023-09-19T08:37:52;6.35;;;4.71;;
70450;SDS011;58869;51.982;4.450;2023-09-19T08:40:18;6.73;;;4.90;;
70450;SDS011;58869;51.982;4.450;2023-09-19T08:42:47;6.98;;;5.01;;
70450;SDS011;58869;51.982;4.450;2023-09-19T08:45:25;7.97;;;5.59;;
70450;SDS011;58869;51.982;4.450;2023-09-19T08:51:03;7.14;;;5.19;;
70450;SDS011;58869;51.982;4.450;2023-09-19T08:54:22;6.60;;;4.83;;
70450;SDS011;58869;51.982;4.450;2023-09-19T08:56:24;8.40;;;5.87;;
70450;SDS011;58869;51.982;4.450;2023-09-19T08:58:57;7.87;;;5.48;;
70450;SDS011;58869;51.982;4.450;2023-09-19T09:01:29;7.57;;;5.31;;
70450;SDS011;58869;51.982;4.450;2023-09-19T09:03:57;7.92;;;5.58;;
70450;SDS011;58869;51.982;4.450;2023-09-19T09:06:24;7.32;;;5.17;;
70450;SDS011;58869;51.982;4.450;2023-09-19T09:08:50;7.31;;;5.23;;
70450;SDS011;58869;51.982;4.450;2023-09-19T09:11:17;8.19;;;5.68;;
70450;SDS011;58869;51.982;4.450;2023-09-19T09:13:47;8.68;;;5.89;;
70450;SDS011;58869;51.982;4.450;2023-09-19T09:16:13;9.09;;;6.19;;
70450;SDS011;58869;51.982;4.450;2023-09-19T09:18:44;8.66;;;5.84;;
70450;SDS011;58869;51.982;4.450;2023-09-19T09:21:12;8.51;;;5.86;;
70450;SDS011;58869;51.982;4.450;2023-09-19T09:23:38;7.32;;;5.00;;
70450;SDS011;58869;51.982;4.450;2023-09-19T09:26:04;8.31;;;5.67;;
70450;SDS011;58869;51.982;4.450;2023-09-19T09:28:32;8.34;;;5.67;;
70450;SDS011;58869;51.982;4.450;2023-09-19T09:30:59;8.65;;;5.96;;
70450;SDS011;58869;51.982;4.450;2023-09-19T09:33:27;7.86;;;5.51;;
70450;SDS011;58869;51.982;4.450;2023-09-19T09:35:58;7.86;;;5.46;;
70450;SDS011;58869;51.982;4.450;2023-09-19T09:38:44;7.54;;;5.33;;
70450;SDS011;58869;51.982;4.450;2023-09-19T09:41:11;7.32;;;5.10;;
70450;SDS011;58869;51.982;4.450;2023-09-19T09:43:40;7.50;;;5.19;;
70450;SDS011;58869;51.982;4.450;2023-09-19T09:46:12;7.06;;;4.98;;
70450;SDS011;58869;51.982;4.450;2023-09-19T09:49:09;5.85;;;4.33;;
70450;SDS011;58869;51.982;4.450;2023-09-19T09:51:42;6.47;;;4.76;;
70450;SDS011;58869;51.982;4.450;2023-09-19T09:54:15;6.36;;;4.81;;
70450;SDS011;58869;51.982;4.450;2023-09-19T09:56:56;6.29;;;4.75;;
70450;SDS011;58869;51.982;4.450;2023-09-19T09:59:46;6.47;;;4.65;;
70450;SDS011;58869;51.982;4.450;2023-09-19T10:02:25;6.18;;;4.43;;
70450;SDS011;58869;51.982;4.450;2023-09-19T10:04:58;6.61;;;4.68;;
70450;SDS011;58869;51.982;4.450;2023-09-19T10:07:37;6.81;;;4.77;;
70450;SDS011;58869;51.982;4.450;2023-09-19T10:10:06;5.99;;;4.29;;
70450;SDS011;58869;51.982;4.450;2023-09-19T10:12:45;5.79;;;4.20;;
70450;SDS011;58869;51.982;4.450;2023-09-19T10:15:13;5.44;;;3.98;;
70450;SDS011;58869;51.982;4.450;2023-09-19T10:17:45;5.61;;;4.21;;
70450;SDS011;58869;51.982;4.450;2023-09-19T10:20:13;5.31;;;4.06;;
70450;SDS011;58869;51.982;4.450;2023-09-19T10:23:04;4.98;;;3.82;;
70450;SDS011;58869;51.982;4.450;2023-09-19T10:25:36;5.44;;;4.18;;
70450;SDS011;58869;51.982;4.450;2023-09-19T10:28:09;4.93;;;3.75;;
70450;SDS011;58869;51.982;4.450;2023-09-19T10:30:36;5.81;;;4.33;;
70450;SDS011;58869;51.982;4.450;2023-09-19T10:33:09;5.31;;;3.95;;
70450;SDS011;58869;51.982;4.450;2023-09-19T10:35:35;4.96;;;3.72;;
70450;SDS011;58869;51.982;4.450;2023-09-19T10:38:05;4.98;;;3.66;;
70450;SDS011;58869;51.982;4.450;2023-09-19T10:40:34;5.03;;;3.64;;
70450;SDS011;58869;51.982;4.450;2023-09-19T10:43:02;5.33;;;3.81;;
70450;SDS011;58869;51.982;4.450;2023-09-19T10:45:30;4.66;;;3.38;;
70450;SDS011;58869;51.982;4.450;2023-09-19T10:47:57;5.00;;;3.60;;
70450;SDS011;58869;51.982;4.450;2023-09-19T10:50:24;4.65;;;3.34;;
70450;SDS011;58869;51.982;4.450;2023-09-19T10:52:50;4.54;;;3.33;;
70450;SDS011;58869;51.982;4.450;2023-09-19T10:55:25;4.38;;;3.25;;
70450;SDS011;58869;51.982;4.450;2023-09-19T10:57:54;4.36;;;3.25;;
70450;SDS011;58869;51.982;4.450;2023-09-19T11:00:54;4.47;;;3.30;;
70450;SDS011;58869;51.982;4.450;2023-09-19T11:03:22;4.02;;;2.92;;
70450;SDS011;58869;51.982;4.450;2023-09-19T11:06:01;4.26;;;3.15;;
70450;SDS011;58869;51.982;4.450;2023-09-19T11:08:51;3.90;;;2.90;;
70450;SDS011;58869;51.982;4.450;2023-09-19T11:17:29;4.02;;;3.04;;
70450;SDS011;58869;51.982;4.450;2023-09-19T11:30:52;3.94;;;2.87;;
70450;SDS011;58869;51.982;4.450;2023-09-19T11:33:21;4.05;;;3.05;;
70450;SDS011;58869;51.982;4.450;2023-09-19T11:36:06;3.96;;;3.02;;
70450;SDS011;58869;51.982;4.450;2023-09-19T11:49:16;3.66;;;2.86;;
70450;SDS011;58869;51.982;4.450;2023-09-19T11:51:46;3.39;;;2.69;;
70450;SDS011;58869;51.982;4.450;2023-09-19T11:54:16;3.24;;;2.57;;
70450;SDS011;58869;51.982;4.450;2023-09-19T11:56:50;3.63;;;2.89;;
70450;SDS011;58869;51.982;4.450;2023-09-19T11:59:25;3.29;;;2.65;;
70450;SDS011;58869;51.982;4.450;2023-09-19T12:01:55;3.51;;;2.83;;
70450;SDS011;58869;51.982;4.450;2023-09-19T12:04:34;3.59;;;2.92;;
70450;SDS011;58869;51.982;4.450;2023-09-19T12:07:03;3.23;;;2.60;;
70450;SDS011;58869;51.982;4.450;2023-09-19T12:09:31;3.22;;;2.61;;
70450;SDS011;58869;51.982;4.450;2023-09-19T12:11:57;3.08;;;2.47;;
70450;SDS011;58869;51.982;4.450;2023-09-19T12:14:23;3.23;;;2.59;;
70450;SDS011;58869;51.982;4.450;2023-09-19T12:16:55;3.53;;;2.83;;
70450;SDS011;58869;51.982;4.450;2023-09-19T12:19:22;3.15;;;2.53;;
70450;SDS011;58869;51.982;4.450;2023-09-19T12:21:55;3.56;;;2.85;;
70450;SDS011;58869;51.982;4.450;2023-09-19T12:24:23;3.44;;;2.78;;
70450;SDS011;58869;51.982;4.450;2023-09-19T12:26:56;3.35;;;2.73;;
70450;SDS011;58869;51.982;4.450;2023-09-19T12:29:26;3.31;;;2.71;;
70450;SDS011;58869;51.982;4.450;2023-09-19T12:34:24;3.03;;;2.50;;
70450;SDS011;58869;51.982;4.450;2023-09-19T12:39:40;2.85;;;2.42;;
70450;SDS011;58869;51.982;4.450;2023-09-19T12:42:13;2.51;;;2.16;;
70450;SDS011;58869;51.982;4.450;2023-09-19T12:44:52;2.69;;;2.26;;
70450;SDS011;58869;51.982;4.450;2023-09-19T12:47:28;2.92;;;2.45;;
70450;SDS011;58869;51.982;4.450;2023-09-19T12:52:49;3.24;;;2.70;;
70450;SDS011;58869;51.982;4.450;2023-09-19T12:55:30;2.85;;;2.41;;
70450;SDS011;58869;51.982;4.450;2023-09-19T13:00:56;2.66;;;2.26;;
70450;SDS011;58869;51.982;4.450;2023-09-19T13:03:25;3.00;;;2.53;;
70450;SDS011;58869;51.982;4.450;2023-09-19T13:06:01;3.19;;;2.66;;
70450;SDS011;58869;51.982;4.450;2023-09-19T13:08:38;3.53;;;2.96;;
70450;SDS011;58869;51.982;4.450;2023-09-19T13:13:45;3.28;;;2.81;;
70450;SDS011;58869;51.982;4.450;2023-09-19T13:16:20;2.95;;;2.56;;
70450;SDS011;58869;51.982;4.450;2023-09-19T13:18:51;3.28;;;2.80;;
70450;SDS011;58869;51.982;4.450;2023-09-19T13:21:34;3.50;;;2.97;;
70450;SDS011;58869;51.982;4.450;2023-09-19T13:24:20;3.60;;;3.03;;
70450;SDS011;58869;51.982;4.450;2023-09-19T13:26:48;3.69;;;3.07;;
70450;SDS011;58869;51.982;4.450;2023-09-19T13:29:14;4.01;;;3.33;;
70450;SDS011;58869;51.982;4.450;2023-09-19T13:31:45;3.76;;;3.27;;
70450;SDS011;58869;51.982;4.450;2023-09-19T13:34:19;3.50;;;3.04;;
70450;SDS011;58869;51.982;4.450;2023-09-19T13:36:45;4.09;;;3.55;;
70450;SDS011;58869;51.982;4.450;2023-09-19T13:39:13;3.52;;;3.08;;
70450;SDS011;58869;51.982;4.450;2023-09-19T13:41:46;3.16;;;2.84;;
70450;SDS011;58869;51.982;4.450;2023-09-19T13:44:15;3.56;;;3.21;;
70450;SDS011;58869;51.982;4.450;2023-09-19T13:46:43;3.65;;;3.24;;
70450;SDS011;58869;51.982;4.450;2023-09-19T13:49:11;3.45;;;3.00;;
70450;SDS011;58869;51.982;4.450;2023-09-19T13:51:37;4.02;;;3.48;;
70450;SDS011;58869;51.982;4.450;2023-09-19T13:54:03;4.39;;;3.70;;
70450;SDS011;58869;51.982;4.450;2023-09-19T13:56:30;5.02;;;4.44;;
70450;SDS011;58869;51.982;4.450;2023-09-19T13:58:57;3.90;;;3.42;;
70450;SDS011;58869;51.982;4.450;2023-09-19T14:01:22;3.82;;;3.37;;
70450;SDS011;58869;51.982;4.450;2023-09-19T14:03:50;3.69;;;3.22;;
70450;SDS011;58869;51.982;4.450;2023-09-19T14:06:16;3.72;;;3.27;;
70450;SDS011;58869;51.982;4.450;2023-09-19T14:08:54;3.63;;;3.21;;
70450;SDS011;58869;51.982;4.450;2023-09-19T14:11:20;3.95;;;3.51;;
70450;SDS011;58869;51.982;4.450;2023-09-19T14:13:45;4.07;;;3.56;;
70450;SDS011;58869;51.982;4.450;2023-09-19T14:16:25;4.14;;;3.58;;
70450;SDS011;58869;51.982;4.450;2023-09-19T14:18:55;4.48;;;3.88;;
70450;SDS011;58869;51.982;4.450;2023-09-19T14:21:21;4.34;;;3.75;;
70450;SDS011;58869;51.982;4.450;2023-09-19T14:23:46;4.05;;;3.43;;
70450;SDS011;58869;51.982;4.450;2023-09-19T14:26:11;4.26;;;3.61;;
70450;SDS011;58869;51.982;4.450;2023-09-19T14:28:38;4.17;;;3.59;;
70450;SDS011;58869;51.982;4.450;2023-09-19T14:31:05;3.84;;;3.39;;
70450;SDS011;58869;51.982;4.450;2023-09-19T14:33:34;4.16;;;3.63;;
70450;SDS011;58869;51.982;4.450;2023-09-19T14:36:03;4.33;;;3.74;;
70450;SDS011;58869;51.982;4.450;2023-09-19T14:38:46;4.43;;;3.81;;
70450;SDS011;58869;51.982;4.450;2023-09-19T14:41:28;4.84;;;4.01;;
70450;SDS011;58869;51.982;4.450;2023-09-19T14:44:03;4.87;;;4.02;;
70450;SDS011;58869;51.982;4.450;2023-09-19T14:46:30;4.52;;;3.84;;
70450;SDS011;58869;51.982;4.450;2023-09-19T14:49:01;4.28;;;3.67;;
70450;SDS011;58869;51.982;4.450;2023-09-19T14:51:31;4.76;;;3.94;;
70450;SDS011;58869;51.982;4.450;2023-09-19T14:57:00;4.66;;;4.04;;
70450;SDS011;58869;51.982;4.450;2023-09-19T14:59:35;4.27;;;3.80;;
70450;SDS011;58869;51.982;4.450;2023-09-19T15:02:03;4.49;;;3.97;;
70450;SDS011;58869;51.982;4.450;2023-09-19T15:04:29;4.37;;;3.84;;
70450;SDS011;58869;51.982;4.450;2023-09-19T15:06:55;4.57;;;3.96;;
70450;SDS011;58869;51.982;4.450;2023-09-19T15:09:24;4.80;;;4.08;;
70450;SDS011;58869;51.982;4.450;2023-09-19T15:11:55;4.93;;;4.23;;
70450;SDS011;58869;51.982;4.450;2023-09-19T15:14:22;4.68;;;4.08;;
70450;SDS011;58869;51.982;4.450;2023-09-19T15:16:48;5.45;;;4.72;;
70450;SDS011;58869;51.982;4.450;2023-09-19T15:19:14;4.87;;;4.27;;
70450;SDS011;58869;51.982;4.450;2023-09-19T15:21:40;4.56;;;3.93;;
70450;SDS011;58869;51.982;4.450;2023-09-19T15:24:06;4.85;;;4.17;;
70450;SDS011;58869;51.982;4.450;2023-09-19T15:26:35;4.78;;;4.15;;
70450;SDS011;58869;51.982;4.450;2023-09-19T15:29:05;4.67;;;4.13;;
70450;SDS011;58869;51.982;4.450;2023-09-19T15:31:31;4.77;;;4.12;;
70450;SDS011;58869;51.982;4.450;2023-09-19T15:33:57;4.66;;;3.95;;
70450;SDS011;58869;51.982;4.450;2023-09-19T15:36:22;4.41;;;3.89;;
70450;SDS011;58869;51.982;4.450;2023-09-19T15:39:01;4.65;;;4.07;;
70450;SDS011;58869;51.982;4.450;2023-09-19T15:41:32;4.34;;;3.86;;
70450;SDS011;58869;51.982;4.450;2023-09-19T15:44:00;4.52;;;4.05;;
70450;SDS011;58869;51.982;4.450;2023-09-19T15:46:28;4.29;;;3.90;;
70450;SDS011;58869;51.982;4.450;2023-09-19T15:48:55;5.36;;;4.78;;
70450;SDS011;58869;51.982;4.450;2023-09-19T15:51:22;4.89;;;4.38;;
70450;SDS011;58869;51.982;4.450;2023-09-19T15:53:49;4.56;;;4.04;;
70450;SDS011;58869;51.982;4.450;2023-09-19T15:56:17;4.96;;;4.29;;
70450;SDS011;58869;51.982;4.450;2023-09-19T15:58:46;5.22;;;4.36;;
70450;SDS011;58869;51.982;4.450;2023-09-19T16:01:12;5.14;;;4.38;;
70450;SDS011;58869;51.982;4.450;2023-09-19T16:03:45;4.40;;;3.76;;
70450;SDS011;58869;51.982;4.450;2023-09-19T16:06:13;4.41;;;3.79;;
70450;SDS011;58869;51.982;4.450;2023-09-19T16:08:42;4.24;;;3.69;;
70450;SDS011;58869;51.982;4.450;2023-09-19T16:11:10;4.48;;;3.88;;
70450;SDS011;58869;51.982;4.450;2023-09-19T16:13:37;4.66;;;4.04;;
70450;SDS011;58869;51.982;4.450;2023-09-19T16:16:11;4.81;;;4.19;;
70450;SDS011;58869;51.982;4.450;2023-09-19T16:18:37;4.61;;;4.01;;
70450;SDS011;58869;51.982;4.450;2023-09-19T16:21:16;4.78;;;4.10;;
70450;SDS011;58869;51.982;4.450;2023-09-19T16:23:47;4.80;;;4.08;;
70450;SDS011;58869;51.982;4.450;2023-09-19T16:26:19;5.47;;;4.55;;
70450;SDS011;58869;51.982;4.450;2023-09-19T16:28:46;4.93;;;4.15;;
70450;SDS011;58869;51.982;4.450;2023-09-19T16:31:14;4.80;;;4.13;;
70450;SDS011;58869;51.982;4.450;2023-09-19T16:33:40;5.11;;;4.37;;
70450;SDS011;58869;51.982;4.450;2023-09-19T16:36:07;5.54;;;4.71;;
70450;SDS011;58869;51.982;4.450;2023-09-19T16:38:43;4.56;;;4.02;;
70450;SDS011;58869;51.982;4.450;2023-09-19T16:41:10;5.51;;;4.79;;